Time,TemperatureF,DewpointF,PressureIn,WindDirection,WindDirectionDegrees,WindSpeedMPH,WindSpeedGustMPH,Humidity,HourlyPrecipIn,Conditions,Clouds,dailyrainin,SoftwareType,DateUTC
2013-11-11 00:00:00,42.0,27.5,30.05,WNW,298,10.0,11.0,56,0.00,,,0.00,VWS V15.00,2013-11-11 05:00:00,
2013-11-11 00:01:00,42.8,28.2,30.03,WNW,296,11.0,11.0,56,0.00,,,0.00,VWS V14.01,2013-11-11 05:01:00,
2013-11-11 00:06:00,42.7,28.1,30.04,West,273,7.0,12.0,56,0.00,,,0.00,VWS V14.01,2013-11-11 05:06:00,
2013-11-11 00:10:00,41.9,27.8,30.05,ESE,119,3.0,12.0,57,0.00,,,0.00,VWS V15.00,2013-11-11 05:10:00,
2013-11-11 00:11:00,42.7,28.1,30.04,WSW,254,3.0,15.0,56,0.00,,,0.00,VWS V14.01,2013-11-11 05:11:00,
2013-11-11 00:16:00,42.5,28.4,30.04,West,275,4.0,8.0,57,0.00,,,0.00,VWS V14.01,2013-11-11 05:16:00,
2013-11-11 00:20:00,41.6,27.5,30.06,SSW,198,1.0,15.0,57,0.00,,,0.00,VWS V15.00,2013-11-11 05:20:00,
2013-11-11 00:21:00,42.5,28.4,30.04,NNE,20,5.0,11.0,57,0.00,,,0.00,VWS V14.01,2013-11-11 05:21:00,
2013-11-11 00:26:00,42.4,28.3,30.04,WNW,302,3.0,10.0,57,0.00,,,0.00,VWS V14.01,2013-11-11 05:26:00,
2013-11-11 00:30:00,41.5,27.4,30.07,North,5,5.0,20.0,57,0.00,,,0.00,VWS V15.00,2013-11-11 05:30:00,
2013-11-11 00:31:00,42.4,28.3,30.05,North,360,7.0,10.0,57,0.00,,,0.00,VWS V14.01,2013-11-11 05:31:00,
2013-11-11 00:36:00,42.4,27.8,30.05,East,83,2.0,14.0,56,0.00,,,0.00,VWS V14.01,2013-11-11 05:36:00,
2013-11-11 00:40:00,41.3,27.6,30.07,SSE,162,3.0,13.0,58,0.00,,,0.00,VWS V15.00,2013-11-11 05:40:00,
2013-11-11 00:41:00,42.2,27.6,30.05,WNW,300,8.0,16.0,56,0.00,,,0.00,VWS V14.01,2013-11-11 05:41:00,
2013-11-11 00:46:00,42.2,27.6,30.05,ESE,119,1.0,6.0,56,0.00,,,0.00,VWS V14.01,2013-11-11 05:46:00,
2013-11-11 00:50:00,41.1,27.5,30.08,WSW,255,1.0,7.0,58,0.00,,,0.00,VWS V15.00,2013-11-11 05:50:00,
2013-11-11 00:51:00,42.1,27.5,30.06,West,277,3.0,16.0,56,0.00,,,0.00,VWS V14.01,2013-11-11 05:51:00,
2013-11-11 00:56:00,42.0,27.5,30.06,North,360,5.0,11.0,56,0.00,,,0.00,VWS V14.01,2013-11-11 05:56:00,
2013-11-11 01:00:00,41.1,27.9,30.09,West,259,5.0,9.0,59,0.00,,,0.00,VWS V15.00,2013-11-11 06:00:00,
2013-11-11 01:01:00,42.0,27.5,30.06,North,5,2.0,11.0,56,0.00,,,0.00,VWS V14.01,2013-11-11 06:01:00,
2013-11-11 01:06:00,41.9,27.4,30.05,SSE,150,3.0,12.0,56,0.00,,,0.00,VWS V14.01,2013-11-11 06:06:00,
2013-11-11 01:10:00,41.1,27.9,30.09,West,271,0.0,7.0,59,0.00,,,0.00,VWS V15.00,2013-11-11 06:10:00,
2013-11-11 01:11:00,41.9,27.8,30.05,South,191,5.0,12.0,57,0.00,,,0.00,VWS V14.01,2013-11-11 06:11:00,
2013-11-11 01:16:00,41.8,27.7,30.05,WNW,291,2.0,8.0,57,0.00,,,0.00,VWS V14.01,2013-11-11 06:16:00,
2013-11-11 01:20:00,41.0,27.8,30.10,SW,220,1.0,7.0,59,0.00,,,0.00,VWS V15.00,2013-11-11 06:20:00,
2013-11-11 01:21:00,41.7,27.6,30.06,NW,312,2.0,15.0,57,0.00,,,0.00,VWS V14.01,2013-11-11 06:21:00,
2013-11-11 01:26:00,41.5,27.4,30.06,North,355,2.0,20.0,57,0.00,,,0.00,VWS V14.01,2013-11-11 06:26:00,
2013-11-11 01:30:00,40.8,27.6,30.10,WSW,239,0.0,6.0,59,0.00,,,0.00,VWS V15.00,2013-11-11 06:30:00,
2013-11-11 01:31:00,41.5,27.4,30.06,WSW,247,2.0,20.0,57,0.00,,,0.00,VWS V14.01,2013-11-11 06:31:00,
2013-11-11 01:36:00,41.4,27.8,30.07,WNW,296,4.0,13.0,58,0.00,,,0.00,VWS V14.01,2013-11-11 06:36:00,
2013-11-11 01:40:00,40.6,27.4,30.10,WNW,302,0.0,7.0,59,0.00,,,0.00,VWS V15.00,2013-11-11 06:40:00,
2013-11-11 01:41:00,41.3,27.6,30.07,SE,146,1.0,13.0,58,0.00,,,0.00,VWS V14.01,2013-11-11 06:41:00,
2013-11-11 01:46:00,41.3,27.6,30.07,SSW,210,2.0,7.0,58,0.00,,,0.00,VWS V14.01,2013-11-11 06:46:00,
2013-11-11 01:50:00,40.5,27.7,30.11,West,267,4.0,9.0,60,0.00,,,0.00,VWS V15.00,2013-11-11 06:50:00,
2013-11-11 01:51:00,41.2,27.6,30.08,West,266,4.0,7.0,58,0.00,,,0.00,VWS V14.01,2013-11-11 06:51:00,
2013-11-11 01:56:00,41.1,27.9,30.08,WSW,251,8.0,8.0,59,0.00,,,0.00,VWS V14.01,2013-11-11 06:56:00,
2013-11-11 02:00:00,40.6,27.4,30.11,WNW,300,2.0,6.0,59,0.00,,,0.00,VWS V15.00,2013-11-11 07:00:00,
2013-11-11 02:01:00,41.1,27.9,30.08,SW,214,4.0,9.0,59,0.00,,,0.00,VWS V14.01,2013-11-11 07:01:00,
2013-11-11 02:06:00,41.1,27.9,30.09,South,185,4.0,5.0,59,0.00,,,0.00,VWS V14.01,2013-11-11 07:06:00,
2013-11-11 02:10:00,40.5,27.3,30.11,WSW,255,1.0,8.0,59,0.00,,,0.00,VWS V15.00,2013-11-11 07:10:00,
2013-11-11 02:11:00,41.1,27.9,30.09,West,271,1.0,7.0,59,0.00,,,0.00,VWS V14.01,2013-11-11 07:11:00,
2013-11-11 02:16:00,41.1,27.9,30.09,West,265,2.0,5.0,59,0.00,,,0.00,VWS V14.01,2013-11-11 07:16:00,
2013-11-11 02:20:00,40.4,27.2,30.11,West,271,3.0,10.0,59,0.00,,,0.00,VWS V15.00,2013-11-11 07:20:00,
2013-11-11 02:21:00,41.0,27.8,30.10,NW,307,0.0,7.0,59,0.00,,,0.00,VWS V14.01,2013-11-11 07:21:00,
2013-11-11 02:26:00,40.9,27.7,30.10,ESE,113,0.0,3.0,59,0.00,,,0.00,VWS V14.01,2013-11-11 07:26:00,
2013-11-11 02:30:00,40.3,27.1,30.12,NE,50,2.0,9.0,59,0.00,,,0.00,VWS V15.00,2013-11-11 07:30:00,
2013-11-11 02:31:00,40.8,27.6,30.10,WSW,239,0.0,6.0,59,0.00,,,0.00,VWS V14.01,2013-11-11 07:31:00,
2013-11-11 02:36:00,40.7,27.5,30.10,WSW,250,5.0,5.0,59,0.00,,,0.00,VWS V14.01,2013-11-11 07:36:00,
2013-11-11 02:40:00,40.2,27.4,30.12,WNW,287,2.0,10.0,60,0.00,,,0.00,VWS V15.00,2013-11-11 07:40:00,
2013-11-11 02:41:00,40.6,27.8,30.10,NW,308,2.0,7.0,60,0.00,,,0.00,VWS V14.01,2013-11-11 07:41:00,
2013-11-11 02:46:00,40.5,27.7,30.11,WSW,254,4.0,6.0,60,0.00,,,0.00,VWS V14.01,2013-11-11 07:46:00,
2013-11-11 02:50:00,40.1,26.9,30.11,WNW,299,4.0,14.0,59,0.00,,,0.00,VWS V15.00,2013-11-11 07:50:00,
2013-11-11 02:51:00,40.6,27.8,30.11,SW,215,1.0,9.0,60,0.00,,,0.00,VWS V14.01,2013-11-11 07:51:00,
2013-11-11 02:56:00,40.6,27.8,30.11,WNW,294,1.0,6.0,60,0.00,,,0.00,VWS V14.01,2013-11-11 07:56:00,
2013-11-11 03:00:00,40.0,27.2,30.12,North,355,0.0,7.0,60,0.00,,,0.00,VWS V15.00,2013-11-11 08:00:00,
2013-11-11 03:01:00,40.6,27.4,30.11,WNW,300,0.0,6.0,59,0.00,,,0.00,VWS V14.01,2013-11-11 08:01:00,
2013-11-11 03:06:00,40.6,27.4,30.11,WNW,302,3.0,6.0,59,0.00,,,0.00,VWS V14.01,2013-11-11 08:06:00,
2013-11-11 03:10:00,39.8,27.1,30.12,NNW,343,2.0,7.0,60,0.00,,,0.00,VWS V15.00,2013-11-11 08:10:00,
2013-11-11 03:11:00,40.6,27.4,30.11,WSW,242,3.0,7.0,59,0.00,,,0.00,VWS V14.01,2013-11-11 08:11:00,
2013-11-11 03:16:00,40.5,27.3,30.11,SW,228,3.0,10.0,59,0.00,,,0.00,VWS V14.01,2013-11-11 08:16:00,
2013-11-11 03:20:00,39.6,26.9,30.12,NNW,343,0.0,2.0,60,0.00,,,0.00,VWS V15.00,2013-11-11 08:20:00,
2013-11-11 03:21:00,40.4,27.2,30.11,North,355,2.0,10.0,59,0.00,,,0.00,VWS V14.01,2013-11-11 08:21:00,
2013-11-11 03:26:00,40.3,27.1,30.11,East,80,5.0,9.0,59,0.00,,,0.00,VWS V14.01,2013-11-11 08:26:00,
2013-11-11 03:30:00,39.3,27.0,30.12,WNW,292,1.0,3.0,61,0.00,,,0.00,VWS V15.00,2013-11-11 08:30:00,
2013-11-11 03:31:00,40.3,27.1,30.11,NNW,332,2.0,9.0,59,0.00,,,0.00,VWS V14.01,2013-11-11 08:31:00,
2013-11-11 03:36:00,40.2,27.0,30.12,WNW,286,0.0,6.0,59,0.00,,,0.00,VWS V14.01,2013-11-11 08:36:00,
2013-11-11 03:40:00,38.8,26.9,30.12,WNW,301,0.0,4.0,62,0.00,,,0.00,VWS V15.00,2013-11-11 08:40:00,
2013-11-11 03:41:00,40.2,27.0,30.12,NW,314,4.0,10.0,59,0.00,,,0.00,VWS V14.01,2013-11-11 08:41:00,
2013-11-11 03:46:00,40.1,27.4,30.12,WNW,284,3.0,6.0,60,0.00,,,0.00,VWS V14.01,2013-11-11 08:46:00,
2013-11-11 03:50:00,38.3,26.8,30.13,NW,315,0.0,3.0,63,0.00,,,0.00,VWS V15.00,2013-11-11 08:50:00,
2013-11-11 03:51:00,40.1,27.4,30.11,WNW,301,0.0,14.0,60,0.00,,,0.00,VWS V14.01,2013-11-11 08:51:00,
2013-11-11 03:56:00,40.1,27.4,30.11,NNE,17,0.0,6.0,60,0.00,,,0.00,VWS V14.01,2013-11-11 08:56:00,
2013-11-11 04:00:00,38.0,26.9,30.13,West,264,0.0,3.0,64,0.00,,,0.00,VWS V15.00,2013-11-11 09:00:00,
2013-11-11 04:01:00,40.0,27.2,30.11,NE,35,0.0,7.0,60,0.00,,,0.00,VWS V14.01,2013-11-11 09:01:00,
2013-11-11 04:06:00,40.0,27.2,30.12,North,351,1.0,2.0,60,0.00,,,0.00,VWS V14.01,2013-11-11 09:06:00,
2013-11-11 04:10:00,37.8,26.7,30.13,West,264,0.0,1.0,64,0.00,,,0.00,VWS V15.00,2013-11-11 09:10:00,
2013-11-11 04:11:00,39.9,27.2,30.12,NNW,344,0.0,7.0,60,0.00,,,0.00,VWS V14.01,2013-11-11 09:11:00,
2013-11-11 04:16:00,39.8,27.1,30.12,NNW,344,1.0,2.0,60,0.00,,,0.00,VWS V14.01,2013-11-11 09:16:00,
2013-11-11 04:20:00,37.5,26.8,30.14,West,264,0.0,1.0,65,0.00,,,0.00,VWS V15.00,2013-11-11 09:20:00,
2013-11-11 04:21:00,39.7,27.0,30.12,NNW,343,0.0,2.0,60,0.00,,,0.00,VWS V14.01,2013-11-11 09:21:00,
2013-11-11 04:26:00,39.5,27.2,30.12,WNW,292,0.0,3.0,61,0.00,,,0.00,VWS V14.01,2013-11-11 09:26:00,
2013-11-11 04:30:00,37.1,26.8,30.14,West,264,0.0,1.0,66,0.00,,,0.00,VWS V15.00,2013-11-11 09:30:00,
2013-11-11 04:31:00,39.3,27.0,30.12,WNW,292,0.0,3.0,61,0.00,,,0.00,VWS V14.01,2013-11-11 09:31:00,
2013-11-11 04:36:00,39.1,26.8,30.12,WNW,290,4.0,4.0,61,0.00,,,0.00,VWS V14.01,2013-11-11 09:36:00,
2013-11-11 04:40:00,36.8,26.5,30.14,West,264,0.0,0.0,66,0.00,,,0.00,VWS V15.00,2013-11-11 09:40:00,
2013-11-11 04:41:00,38.8,26.9,30.12,WNW,301,0.0,4.0,62,0.00,,,0.00,VWS V14.01,2013-11-11 09:41:00,
2013-11-11 04:46:00,38.6,27.1,30.12,WNW,300,0.0,0.0,63,0.00,,,0.00,VWS V14.01,2013-11-11 09:46:00,
2013-11-11 04:50:00,36.3,26.8,30.15,West,264,0.0,0.0,68,0.00,,,0.00,VWS V15.00,2013-11-11 09:50:00,
2013-11-11 04:51:00,38.3,26.8,30.13,NW,315,0.0,3.0,63,0.00,,,0.00,VWS V14.01,2013-11-11 09:51:00,
2013-11-11 04:56:00,38.2,26.7,30.13,NW,315,0.0,2.0,63,0.00,,,0.00,VWS V14.01,2013-11-11 09:56:00,
2013-11-11 05:00:00,35.8,26.6,30.16,West,264,0.0,1.0,69,0.00,,,0.00,VWS V15.00,2013-11-11 10:00:00,
2013-11-11 05:01:00,38.0,26.9,30.13,West,264,0.0,3.0,64,0.00,,,0.00,VWS V14.01,2013-11-11 10:01:00,
2013-11-11 05:06:00,37.9,26.8,30.13,West,264,0.0,1.0,64,0.00,,,0.00,VWS V14.01,2013-11-11 10:06:00,
2013-11-11 05:10:00,35.4,26.6,30.16,West,265,0.0,4.0,70,0.00,,,0.00,VWS V15.00,2013-11-11 10:10:00,
2013-11-11 05:11:00,37.8,26.7,30.13,West,264,0.0,1.0,64,0.00,,,0.00,VWS V14.01,2013-11-11 10:11:00,
2013-11-11 05:16:00,37.7,27.0,30.13,West,264,0.0,1.0,65,0.00,,,0.00,VWS V14.01,2013-11-11 10:16:00,
2013-11-11 05:20:00,35.0,26.6,30.16,West,265,0.0,1.0,71,0.00,,,0.00,VWS V15.00,2013-11-11 10:20:00,
2013-11-11 05:21:00,37.6,26.9,30.14,West,264,0.0,1.0,65,0.00,,,0.00,VWS V14.01,2013-11-11 10:21:00,
2013-11-11 05:26:00,37.4,27.1,30.14,West,264,0.0,1.0,66,0.00,,,0.00,VWS V14.01,2013-11-11 10:26:00,
2013-11-11 05:30:00,34.7,26.3,30.17,West,265,0.0,2.0,71,0.00,,,0.00,VWS V15.00,2013-11-11 10:30:00,
2013-11-11 05:31:00,37.1,26.8,30.14,West,264,0.0,1.0,66,0.00,,,0.00,VWS V14.01,2013-11-11 10:31:00,
2013-11-11 05:36:00,37.0,26.7,30.14,West,264,0.0,0.0,66,0.00,,,0.00,VWS V14.01,2013-11-11 10:36:00,
2013-11-11 05:40:00,34.5,26.4,30.17,West,265,0.0,2.0,72,0.00,,,0.00,VWS V15.00,2013-11-11 10:40:00,
2013-11-11 05:41:00,36.8,26.9,30.14,West,264,0.0,0.0,67,0.00,,,0.00,VWS V14.01,2013-11-11 10:41:00,
2013-11-11 05:46:00,36.6,26.7,30.14,West,264,0.0,0.0,67,0.00,,,0.00,VWS V14.01,2013-11-11 10:46:00,
2013-11-11 05:50:00,34.5,26.8,30.17,West,262,0.0,3.0,73,0.00,,,0.00,VWS V15.00,2013-11-11 10:50:00,
2013-11-11 05:51:00,36.4,26.5,30.15,West,264,0.0,0.0,67,0.00,,,0.00,VWS V14.01,2013-11-11 10:51:00,
2013-11-11 05:56:00,36.1,26.6,30.15,West,264,0.0,1.0,68,0.00,,,0.00,VWS V14.01,2013-11-11 10:56:00,
2013-11-11 06:00:00,34.6,26.9,30.17,West,263,0.0,1.0,73,0.00,,,0.00,VWS V15.00,2013-11-11 11:00:00,
2013-11-11 06:01:00,35.9,26.7,30.15,West,264,0.0,1.0,69,0.00,,,0.00,VWS V14.01,2013-11-11 11:01:00,
2013-11-11 06:06:00,35.6,26.5,30.16,West,265,0.0,4.0,69,0.00,,,0.00,VWS V14.01,2013-11-11 11:06:00,
2013-11-11 06:10:00,34.5,26.8,30.17,West,263,0.0,1.0,73,0.00,,,0.00,VWS V15.00,2013-11-11 11:10:00,
2013-11-11 06:11:00,35.4,26.6,30.16,West,265,0.0,4.0,70,0.00,,,0.00,VWS V14.01,2013-11-11 11:11:00,
2013-11-11 06:16:00,35.2,26.4,30.16,West,265,0.0,0.0,70,0.00,,,0.00,VWS V14.01,2013-11-11 11:16:00,
2013-11-11 06:20:00,34.4,26.7,30.17,West,263,0.0,0.0,73,0.00,,,0.00,VWS V15.00,2013-11-11 11:20:00,
2013-11-11 06:21:00,35.1,26.7,30.16,West,265,0.0,1.0,71,0.00,,,0.00,VWS V14.01,2013-11-11 11:21:00,
2013-11-11 06:26:00,34.9,26.5,30.16,West,265,0.0,2.0,71,0.00,,,0.00,VWS V14.01,2013-11-11 11:26:00,
2013-11-11 06:30:00,34.4,27.0,30.18,West,263,0.0,3.0,74,0.00,,,0.00,VWS V15.00,2013-11-11 11:30:00,
2013-11-11 06:31:00,34.8,26.4,30.16,West,265,0.0,2.0,71,0.00,,,0.00,VWS V14.01,2013-11-11 11:31:00,
2013-11-11 06:36:00,34.7,26.6,30.17,West,265,0.0,2.0,72,0.00,,,0.00,VWS V14.01,2013-11-11 11:36:00,
2013-11-11 06:40:00,34.8,27.4,30.18,WSW,257,2.0,4.0,74,0.00,,,0.00,VWS V15.00,2013-11-11 11:40:00,
2013-11-11 06:41:00,34.6,26.5,30.17,West,265,0.0,2.0,72,0.00,,,0.00,VWS V14.01,2013-11-11 11:41:00,
2013-11-11 06:46:00,34.5,26.4,30.17,West,265,0.0,2.0,72,0.00,,,0.00,VWS V14.01,2013-11-11 11:46:00,
2013-11-11 06:50:00,35.3,27.5,30.18,WSW,257,0.0,2.0,73,0.00,,,0.00,VWS V15.00,2013-11-11 11:50:00,
2013-11-11 06:51:00,34.5,26.8,30.17,West,262,3.0,3.0,73,0.00,,,0.00,VWS V14.01,2013-11-11 11:51:00,
2013-11-11 06:56:00,34.5,26.8,30.17,West,262,0.0,1.0,73,0.00,,,0.00,VWS V14.01,2013-11-11 11:56:00,
2013-11-11 07:00:00,36.0,27.9,30.19,SW,229,0.0,3.0,72,0.00,,,0.00,VWS V15.00,2013-11-11 12:00:00,
2013-11-11 07:01:00,34.6,26.9,30.17,West,263,0.0,1.0,73,0.00,,,0.00,VWS V14.01,2013-11-11 12:01:00,
2013-11-11 07:06:00,34.6,26.9,30.17,West,262,0.0,0.0,73,0.00,,,0.00,VWS V14.01,2013-11-11 12:06:00,
2013-11-11 07:10:00,36.7,28.2,30.19,SW,234,0.0,3.0,71,0.00,,,0.00,VWS V15.00,2013-11-11 12:10:00,
2013-11-11 07:11:00,34.5,26.8,30.17,West,263,0.0,1.0,73,0.00,,,0.00,VWS V14.01,2013-11-11 12:11:00,
2013-11-11 07:16:00,34.5,26.8,30.17,West,263,0.0,0.0,73,0.00,,,0.00,VWS V14.01,2013-11-11 12:16:00,
2013-11-11 07:20:00,37.4,28.2,30.19,WSW,257,3.0,8.0,69,0.00,,,0.00,VWS V15.00,2013-11-11 12:20:00,
2013-11-11 07:21:00,34.5,26.8,30.17,West,263,0.0,0.0,73,0.00,,,0.00,VWS V14.01,2013-11-11 12:21:00,
2013-11-11 07:26:00,34.5,27.1,30.17,West,263,0.0,1.0,74,0.00,,,0.00,VWS V14.01,2013-11-11 12:26:00,
2013-11-11 07:30:00,34.4,27.0,30.17,West,263,0.0,3.0,74,0.00,,,0.00,VWS V14.01,2013-11-11 12:30:00,
2013-11-11 07:35:00,34.4,27.0,30.18,West,263,0.0,2.0,74,0.00,,,0.00,VWS V14.01,2013-11-11 12:35:00,
2013-11-11 07:40:00,34.7,27.3,30.18,WSW,257,0.0,4.0,74,0.00,,,0.00,VWS V14.01,2013-11-11 12:40:00,
2013-11-11 07:45:00,35.0,27.2,30.18,WSW,257,0.0,2.0,73,0.00,,,0.00,VWS V14.01,2013-11-11 12:45:00,
2013-11-11 07:50:00,35.2,27.4,30.18,WSW,257,0.0,2.0,73,0.00,,,0.00,VWS V14.01,2013-11-11 12:50:00,
2013-11-11 07:55:00,35.5,27.7,30.18,WSW,257,0.0,1.0,73,0.00,,,0.00,VWS V14.01,2013-11-11 12:55:00,
2013-11-11 08:00:00,35.9,27.8,30.18,SW,229,0.0,3.0,72,0.00,,,0.00,VWS V14.01,2013-11-11 13:00:00,
2013-11-11 08:06:00,36.2,28.1,30.19,SW,229,0.0,3.0,72,0.00,,,0.00,VWS V14.01,2013-11-11 13:06:00,
2013-11-11 08:10:00,40.2,28.6,30.19,NW,306,1.0,13.0,63,0.00,,,0.00,VWS V15.00,2013-11-11 13:10:00,
2013-11-11 08:11:00,36.6,28.1,30.19,SW,234,0.0,3.0,71,0.00,,,0.00,VWS V14.01,2013-11-11 13:11:00,
2013-11-11 08:16:00,36.9,28.4,30.19,SW,234,0.0,2.0,71,0.00,,,0.00,VWS V14.01,2013-11-11 13:16:00,
2013-11-11 08:20:00,40.2,28.6,30.18,North,351,5.0,8.0,63,0.00,,,0.00,VWS V15.00,2013-11-11 13:20:00,
2013-11-11 08:21:00,37.3,28.4,30.19,WSW,258,6.0,8.0,70,0.00,,,0.00,VWS V14.01,2013-11-11 13:21:00,
2013-11-11 08:26:00,37.8,28.6,30.19,WSW,257,0.0,3.0,69,0.00,,,0.00,VWS V14.01,2013-11-11 13:26:00,
2013-11-11 08:30:00,40.6,29.0,30.18,WNW,296,0.0,9.0,63,0.00,,,0.00,VWS V15.00,2013-11-11 13:30:00,
2013-11-11 08:31:00,38.4,28.4,30.19,West,267,0.0,7.0,67,0.00,,,0.00,VWS V14.01,2013-11-11 13:31:00,
2013-11-11 08:36:00,38.9,28.9,30.19,West,267,0.0,4.0,67,0.00,,,0.00,VWS V14.01,2013-11-11 13:36:00,
2013-11-11 08:40:00,40.9,28.9,30.18,WSW,241,8.0,9.0,62,0.00,,,0.00,VWS V15.00,2013-11-11 13:40:00,
2013-11-11 08:41:00,39.3,28.9,30.19,NW,304,0.0,7.0,66,0.00,,,0.00,VWS V14.01,2013-11-11 13:41:00,
2013-11-11 08:46:00,39.6,28.8,30.19,NW,320,0.0,4.0,65,0.00,,,0.00,VWS V14.01,2013-11-11 13:46:00,
2013-11-11 08:50:00,41.0,29.0,30.17,NW,326,2.0,8.0,62,0.00,,,0.00,VWS V15.00,2013-11-11 13:50:00,
2013-11-11 08:51:00,39.8,29.0,30.19,West,281,4.0,4.0,65,0.00,,,0.00,VWS V14.01,2013-11-11 13:51:00,
2013-11-11 08:56:00,40.0,28.8,30.19,WNW,287,0.0,5.0,64,0.00,,,0.00,VWS V14.01,2013-11-11 13:56:00,
2013-11-11 09:00:00,41.2,29.2,30.18,West,279,0.0,6.0,62,0.00,,,0.00,VWS V15.00,2013-11-11 14:00:00,
2013-11-11 09:01:00,40.1,28.5,30.19,NW,310,5.0,7.0,63,0.00,,,0.00,VWS V14.01,2013-11-11 14:01:00,
2013-11-11 09:06:00,40.2,28.6,30.19,NNE,29,0.0,7.0,63,0.00,,,0.00,VWS V14.01,2013-11-11 14:06:00,
2013-11-11 09:10:00,41.5,29.9,30.18,WSW,251,5.0,6.0,63,0.00,,,0.00,VWS V15.00,2013-11-11 14:10:00,
2013-11-11 09:11:00,40.2,28.2,30.19,NW,315,5.0,13.0,62,0.00,,,0.00,VWS V14.01,2013-11-11 14:11:00,
2013-11-11 09:16:00,40.2,28.6,30.19,WNW,297,8.0,8.0,63,0.00,,,0.00,VWS V14.01,2013-11-11 14:16:00,
2013-11-11 09:20:00,41.8,30.5,30.18,SW,215,1.0,9.0,64,0.00,,,0.00,VWS V15.00,2013-11-11 14:20:00,
2013-11-11 09:21:00,40.2,28.2,30.18,NW,312,0.0,8.0,62,0.00,,,0.00,VWS V14.01,2013-11-11 14:21:00,
2013-11-11 09:26:00,40.4,28.8,30.18,SW,219,0.0,5.0,63,0.00,,,0.00,VWS V14.01,2013-11-11 14:26:00,
2013-11-11 09:30:00,42.3,30.2,30.16,NNW,333,1.0,5.0,62,0.00,,,0.00,VWS V15.00,2013-11-11 14:30:00,
2013-11-11 09:31:00,40.5,28.5,30.18,WNW,291,0.0,9.0,62,0.00,,,0.00,VWS V14.01,2013-11-11 14:31:00,
2013-11-11 09:36:00,40.7,29.1,30.18,West,260,2.0,5.0,63,0.00,,,0.00,VWS V14.01,2013-11-11 14:36:00,
2013-11-11 09:40:00,42.9,31.2,30.16,WSW,238,0.0,7.0,63,0.00,,,0.00,VWS V15.00,2013-11-11 14:40:00,
2013-11-11 09:41:00,40.9,28.9,30.18,WSW,239,5.0,9.0,62,0.00,,,0.00,VWS V14.01,2013-11-11 14:41:00,
2013-11-11 09:46:00,40.9,28.9,30.18,WSW,249,4.0,8.0,62,0.00,,,0.00,VWS V14.01,2013-11-11 14:46:00,
2013-11-11 09:50:00,43.0,30.5,30.16,WSW,246,0.0,9.0,61,0.00,,,0.00,VWS V15.00,2013-11-11 14:50:00,
2013-11-11 09:51:00,41.0,29.0,30.17,West,261,1.0,8.0,62,0.00,,,0.00,VWS V14.01,2013-11-11 14:51:00,
2013-11-11 09:56:00,41.1,29.1,30.17,NW,322,0.0,3.0,62,0.00,,,0.00,VWS V14.01,2013-11-11 14:56:00,
2013-11-11 10:00:00,43.0,30.5,30.15,WSW,243,4.0,7.0,61,0.00,,,0.00,VWS V15.00,2013-11-11 15:00:00,
2013-11-11 10:01:00,41.2,29.2,30.17,West,279,3.0,6.0,62,0.00,,,0.00,VWS V14.01,2013-11-11 15:01:00,
2013-11-11 10:06:00,41.3,29.7,30.18,NW,311,0.0,4.0,63,0.00,,,0.00,VWS V14.01,2013-11-11 15:06:00,
2013-11-11 10:10:00,44.0,31.8,30.15,West,277,7.0,9.0,62,0.00,,,0.00,VWS V15.00,2013-11-11 15:10:00,
2013-11-11 10:11:00,41.5,29.5,30.18,NW,304,5.0,6.0,62,0.00,,,0.00,VWS V14.01,2013-11-11 15:11:00,
2013-11-11 10:16:00,41.6,29.6,30.18,WNW,288,0.0,9.0,62,0.00,,,0.00,VWS V14.01,2013-11-11 15:16:00,
2013-11-11 10:20:00,45.1,31.6,30.15,NNW,327,9.0,12.0,59,0.00,,,0.00,VWS V15.00,2013-11-11 15:20:00,
2013-11-11 10:21:00,41.8,30.1,30.18,NW,315,0.0,9.0,63,0.00,,,0.00,VWS V14.01,2013-11-11 15:21:00,
2013-11-11 10:26:00,42.1,30.4,30.18,NW,323,3.0,5.0,63,0.00,,,0.00,VWS V14.01,2013-11-11 15:26:00,
2013-11-11 10:30:00,45.2,31.3,30.14,West,276,1.0,9.0,58,0.00,,,0.00,VWS V15.00,2013-11-11 15:30:00,
2013-11-11 10:31:00,42.3,30.2,30.18,NNE,12,3.0,5.0,62,0.00,,,0.00,VWS V14.01,2013-11-11 15:31:00,
2013-11-11 10:36:00,42.4,30.3,30.16,NNW,339,4.0,7.0,62,0.00,,,0.00,VWS V14.01,2013-11-11 15:36:00,
2013-11-11 10:40:00,45.2,31.7,30.14,WNW,297,1.0,8.0,59,0.00,,,0.00,VWS V15.00,2013-11-11 15:40:00,
2013-11-11 10:41:00,42.8,31.5,30.16,WSW,250,1.0,7.0,64,0.00,,,0.00,VWS V14.01,2013-11-11 15:41:00,
2013-11-11 10:46:00,43.1,30.6,30.16,WSW,245,6.0,9.0,61,0.00,,,0.00,VWS V14.01,2013-11-11 15:46:00,
2013-11-11 10:50:00,45.5,32.0,30.14,NW,309,4.0,11.0,59,0.00,,,0.00,VWS V15.00,2013-11-11 15:50:00,
2013-11-11 10:51:00,43.0,30.5,30.16,WSW,238,1.0,9.0,61,0.00,,,0.00,VWS V14.01,2013-11-11 15:51:00,
2013-11-11 10:56:00,43.1,30.6,30.16,West,269,3.0,5.0,61,0.00,,,0.00,VWS V14.01,2013-11-11 15:56:00,
2013-11-11 11:00:00,45.9,32.0,30.13,WSW,244,4.0,7.0,58,0.00,,,0.00,VWS V15.00,2013-11-11 16:00:00,
2013-11-11 11:01:00,43.0,30.5,30.16,WSW,248,2.0,7.0,61,0.00,,,0.00,VWS V14.01,2013-11-11 16:01:00,
2013-11-11 11:06:00,43.2,31.1,30.15,WSW,246,2.0,6.0,62,0.00,,,0.00,VWS V14.01,2013-11-11 16:06:00,
2013-11-11 11:10:00,46.3,32.3,30.13,West,271,3.0,9.0,58,0.00,,,0.00,VWS V15.00,2013-11-11 16:10:00,
2013-11-11 11:11:00,43.9,31.7,30.15,NNW,330,0.0,6.0,62,0.00,,,0.00,VWS V14.01,2013-11-11 16:11:00,
2013-11-11 11:16:00,44.6,31.6,30.15,WNW,284,1.0,11.0,60,0.00,,,0.00,VWS V14.01,2013-11-11 16:16:00,
2013-11-11 11:20:00,47.2,32.3,30.13,WSW,256,0.0,7.0,56,0.00,,,0.00,VWS V15.00,2013-11-11 16:20:00,
2013-11-11 11:21:00,45.1,31.6,30.15,WSW,240,11.0,11.0,59,0.00,,,0.00,VWS V14.01,2013-11-11 16:21:00,
2013-11-11 11:26:00,45.1,31.6,30.15,West,265,1.0,9.0,59,0.00,,,0.00,VWS V14.01,2013-11-11 16:26:00,
2013-11-11 11:30:00,47.8,32.0,30.11,SW,223,4.0,8.0,54,0.00,,,0.00,VWS V15.00,2013-11-11 16:30:00,
2013-11-11 11:31:00,45.2,31.7,30.14,West,263,6.0,9.0,59,0.00,,,0.00,VWS V14.01,2013-11-11 16:31:00,
2013-11-11 11:36:00,45.2,31.7,30.14,WSW,240,3.0,5.0,59,0.00,,,0.00,VWS V14.01,2013-11-11 16:36:00,
2013-11-11 11:40:00,47.8,32.4,30.11,NW,313,6.0,13.0,55,0.00,,,0.00,VWS V15.00,2013-11-11 16:40:00,
2013-11-11 11:41:00,45.2,31.7,30.14,WNW,297,0.0,8.0,59,0.00,,,0.00,VWS V14.01,2013-11-11 16:41:00,
2013-11-11 11:46:00,45.3,31.8,30.14,West,266,6.0,8.0,59,0.00,,,0.00,VWS V14.01,2013-11-11 16:46:00,
2013-11-11 11:50:00,47.4,31.6,30.11,NW,304,2.0,13.0,54,0.00,,,0.00,VWS V15.00,2013-11-11 16:50:00,
2013-11-11 11:51:00,45.4,31.5,30.14,West,269,1.0,8.0,58,0.00,,,0.00,VWS V14.01,2013-11-11 16:51:00,
2013-11-11 11:56:00,45.7,31.8,30.14,SW,221,2.0,7.0,58,0.00,,,0.00,VWS V14.01,2013-11-11 16:56:00,
2013-11-11 12:00:00,47.5,31.7,30.10,WSW,245,3.0,11.0,54,0.00,,,0.00,VWS V15.00,2013-11-11 17:00:00,
2013-11-11 12:01:00,45.8,32.3,30.14,WSW,246,2.0,7.0,59,0.00,,,0.00,VWS V14.01,2013-11-11 17:01:00,
2013-11-11 12:06:00,46.0,32.5,30.13,WSW,248,0.0,6.0,59,0.00,,,0.00,VWS V14.01,2013-11-11 17:06:00,
2013-11-11 12:10:00,48.1,32.7,30.10,SW,225,2.0,13.0,55,0.00,,,0.00,VWS V15.00,2013-11-11 17:10:00,
2013-11-11 12:11:00,46.2,32.2,30.13,SSW,202,2.0,9.0,58,0.00,,,0.00,VWS V14.01,2013-11-11 17:11:00,
2013-11-11 12:16:00,46.6,32.2,30.13,NW,318,1.0,6.0,57,0.00,,,0.00,VWS V14.01,2013-11-11 17:16:00,
2013-11-11 12:20:00,48.1,32.7,30.09,West,263,0.0,9.0,55,0.00,,,0.00,VWS V15.00,2013-11-11 17:20:00,
2013-11-11 12:21:00,47.1,32.2,30.13,WSW,255,1.0,7.0,56,0.00,,,0.00,VWS V14.01,2013-11-11 17:21:00,
2013-11-11 12:26:00,47.4,32.5,30.13,West,266,2.0,7.0,56,0.00,,,0.00,VWS V14.01,2013-11-11 17:26:00,
2013-11-11 12:30:00,48.0,32.6,30.08,WSW,238,1.0,8.0,55,0.00,,,0.00,VWS V15.00,2013-11-11 17:30:00,
2013-11-11 12:31:00,47.7,32.3,30.13,SW,236,3.0,8.0,55,0.00,,,0.00,VWS V14.01,2013-11-11 17:31:00,
2013-11-11 12:36:00,47.8,32.0,30.11,WSW,258,4.0,9.0,54,0.00,,,0.00,VWS V14.01,2013-11-11 17:36:00,
2013-11-11 12:40:00,48.1,33.2,30.08,West,278,4.0,4.0,56,0.00,,,0.00,VWS V15.00,2013-11-11 17:40:00,
2013-11-11 12:41:00,47.8,32.0,30.11,WNW,288,0.0,9.0,54,0.00,,,0.00,VWS V14.01,2013-11-11 17:41:00,
2013-11-11 12:46:00,47.5,31.7,30.11,West,277,8.0,13.0,54,0.00,,,0.00,VWS V14.01,2013-11-11 17:46:00,
2013-11-11 12:50:00,48.1,32.3,30.08,WSW,252,1.0,9.0,54,0.00,,,0.00,VWS V15.00,2013-11-11 17:50:00,
2013-11-11 12:51:00,47.4,31.6,30.11,WSW,248,2.0,13.0,54,0.00,,,0.00,VWS V14.01,2013-11-11 17:51:00,
2013-11-11 12:56:00,47.4,32.1,30.11,SSW,200,6.0,9.0,55,0.00,,,0.00,VWS V14.01,2013-11-11 17:56:00,
2013-11-11 13:00:00,48.2,31.9,30.07,WSW,254,0.0,10.0,53,0.00,,,0.00,VWS V15.00,2013-11-11 18:00:00,
2013-11-11 13:01:00,47.4,31.6,30.11,West,264,5.0,11.0,54,0.00,,,0.00,VWS V14.01,2013-11-11 18:01:00,
2013-11-11 13:06:00,47.7,32.3,30.10,West,267,5.0,13.0,55,0.00,,,0.00,VWS V14.01,2013-11-11 18:06:00,
2013-11-11 13:10:00,48.3,32.0,30.07,West,275,9.0,10.0,53,0.00,,,0.00,VWS V15.00,2013-11-11 18:10:00,
2013-11-11 13:11:00,48.0,32.6,30.10,SW,227,3.0,13.0,55,0.00,,,0.00,VWS V14.01,2013-11-11 18:11:00,
2013-11-11 13:16:00,48.2,33.3,30.10,WNW,282,4.0,6.0,56,0.00,,,0.00,VWS V14.01,2013-11-11 18:16:00,
2013-11-11 13:20:00,48.1,32.3,30.07,WNW,292,0.0,12.0,54,0.00,,,0.00,VWS V15.00,2013-11-11 18:20:00,
2013-11-11 13:21:00,48.2,32.8,30.09,West,263,1.0,9.0,55,0.00,,,0.00,VWS V14.01,2013-11-11 18:21:00,
2013-11-11 13:26:00,48.1,33.2,30.09,West,274,2.0,5.0,56,0.00,,,0.00,VWS V14.01,2013-11-11 18:26:00,
2013-11-11 13:30:00,48.1,31.8,30.06,WSW,257,3.0,10.0,53,0.00,,,0.00,VWS V15.00,2013-11-11 18:30:00,
2013-11-11 13:31:00,48.1,32.7,30.09,West,268,6.0,6.0,55,0.00,,,0.00,VWS V14.01,2013-11-11 18:31:00,
2013-11-11 13:36:00,48.0,33.1,30.08,WSW,250,1.0,3.0,56,0.00,,,0.00,VWS V14.01,2013-11-11 18:36:00,
2013-11-11 13:40:00,48.1,32.3,30.06,West,273,0.0,10.0,54,0.00,,,0.00,VWS V15.00,2013-11-11 18:40:00,
2013-11-11 13:41:00,48.1,33.2,30.08,WSW,250,1.0,3.0,56,0.00,,,0.00,VWS V14.01,2013-11-11 18:41:00,
2013-11-11 13:46:00,48.1,32.7,30.08,WNW,295,4.0,9.0,55,0.00,,,0.00,VWS V14.01,2013-11-11 18:46:00,
2013-11-11 13:50:00,48.1,32.3,30.08,WNW,291,4.0,9.0,54,0.00,,,0.00,VWS V14.01,2013-11-11 18:50:00,
2013-11-11 13:55:00,48.2,32.3,30.08,WSW,253,1.0,4.0,54,0.00,,,0.00,VWS V14.01,2013-11-11 18:55:00,
2013-11-11 14:00:00,48.3,32.4,30.08,SW,231,8.0,10.0,54,0.00,,,0.00,VWS V14.01,2013-11-11 19:00:00,
2013-11-11 14:05:00,48.3,32.4,30.07,SSW,212,0.0,5.0,54,0.00,,,0.00,VWS V14.01,2013-11-11 19:05:00,
2013-11-11 14:10:00,48.3,32.0,30.07,WNW,298,6.0,10.0,53,0.00,,,0.00,VWS V14.01,2013-11-11 19:10:00,
2013-11-11 14:16:00,48.1,31.8,30.07,West,263,2.0,12.0,53,0.00,,,0.00,VWS V14.01,2013-11-11 19:16:00,
2013-11-11 14:20:00,48.2,32.8,30.05,West,268,2.0,8.0,55,0.00,,,0.00,VWS V15.00,2013-11-11 19:20:00,
2013-11-11 14:21:00,48.1,32.3,30.07,WNW,292,0.0,12.0,54,0.00,,,0.00,VWS V14.01,2013-11-11 19:21:00,
2013-11-11 14:26:00,48.1,32.3,30.07,WSW,240,4.0,7.0,54,0.00,,,0.00,VWS V14.01,2013-11-11 19:26:00,
2013-11-11 14:30:00,48.2,32.3,30.05,WSW,251,6.0,12.0,54,0.00,,,0.00,VWS V15.00,2013-11-11 19:30:00,
2013-11-11 14:31:00,48.1,31.8,30.06,West,270,2.0,10.0,53,0.00,,,0.00,VWS V14.01,2013-11-11 19:31:00,
2013-11-11 14:36:00,48.2,31.9,30.06,WSW,252,2.0,9.0,53,0.00,,,0.00,VWS V14.01,2013-11-11 19:36:00,
2013-11-11 14:40:00,48.2,32.3,30.05,West,276,1.0,7.0,54,0.00,,,0.00,VWS V15.00,2013-11-11 19:40:00,
2013-11-11 14:41:00,48.1,32.3,30.06,West,273,2.0,10.0,54,0.00,,,0.00,VWS V14.01,2013-11-11 19:41:00,
2013-11-11 14:46:00,48.1,32.7,30.05,West,265,3.0,5.0,55,0.00,,,0.00,VWS V14.01,2013-11-11 19:46:00,
2013-11-11 14:50:00,48.1,32.3,30.03,West,277,0.0,10.0,54,0.00,,,0.00,VWS V15.00,2013-11-11 19:50:00,
2013-11-11 14:51:00,48.1,32.7,30.05,WSW,237,1.0,5.0,55,0.00,,,0.00,VWS V14.01,2013-11-11 19:51:00,
2013-11-11 14:56:00,48.1,32.7,30.05,WSW,257,1.0,5.0,55,0.00,,,0.00,VWS V14.01,2013-11-11 19:56:00,
2013-11-11 15:00:00,48.0,32.2,30.03,WSW,257,3.0,10.0,54,0.00,,,0.00,VWS V15.00,2013-11-11 20:00:00,
2013-11-11 15:01:00,48.1,32.7,30.05,West,265,9.0,9.0,55,0.00,,,0.00,VWS V14.01,2013-11-11 20:01:00,
2013-11-11 15:06:00,48.1,32.7,30.05,WSW,252,2.0,7.0,55,0.00,,,0.00,VWS V14.01,2013-11-11 20:06:00,
2013-11-11 15:10:00,47.9,32.1,30.03,West,263,3.0,6.0,54,0.00,,,0.00,VWS V15.00,2013-11-11 20:10:00,
2013-11-11 15:11:00,48.1,33.2,30.05,NW,317,4.0,7.0,56,0.00,,,0.00,VWS V14.01,2013-11-11 20:11:00,
2013-11-11 15:16:00,48.1,33.2,30.05,WNW,302,0.0,3.0,56,0.00,,,0.00,VWS V14.01,2013-11-11 20:16:00,
2013-11-11 15:20:00,47.8,32.4,30.03,West,275,1.0,4.0,55,0.00,,,0.00,VWS V15.00,2013-11-11 20:20:00,
2013-11-11 15:21:00,48.2,32.8,30.05,WSW,244,2.0,8.0,55,0.00,,,0.00,VWS V14.01,2013-11-11 20:21:00,
2013-11-11 15:26:00,48.2,32.8,30.05,WSW,240,3.0,6.0,55,0.00,,,0.00,VWS V14.01,2013-11-11 20:26:00,
2013-11-11 15:30:00,47.8,32.9,30.02,West,267,3.0,7.0,56,0.00,,,0.00,VWS V15.00,2013-11-11 20:30:00,
2013-11-11 15:31:00,48.2,32.8,30.05,West,273,10.0,10.0,55,0.00,,,0.00,VWS V14.01,2013-11-11 20:31:00,
2013-11-11 15:36:00,48.3,32.4,30.05,West,259,3.0,7.0,54,0.00,,,0.00,VWS V14.01,2013-11-11 20:36:00,
2013-11-11 15:40:00,47.7,32.3,30.02,SW,225,0.0,7.0,55,0.00,,,0.00,VWS V15.00,2013-11-11 20:40:00,
2013-11-11 15:41:00,48.2,32.3,30.05,WSW,247,3.0,7.0,54,0.00,,,0.00,VWS V14.01,2013-11-11 20:41:00,
2013-11-11 15:46:00,48.2,32.3,30.05,WSW,257,6.0,7.0,54,0.00,,,0.00,VWS V14.01,2013-11-11 20:46:00,
2013-11-11 15:50:00,47.6,31.3,30.02,WSW,254,3.0,12.0,53,0.00,,,0.00,VWS V15.00,2013-11-11 20:50:00,
2013-11-11 15:51:00,48.1,32.3,30.03,WNW,288,7.0,10.0,54,0.00,,,0.00,VWS V14.01,2013-11-11 20:51:00,
2013-11-11 15:56:00,48.0,32.2,30.03,West,268,1.0,6.0,54,0.00,,,0.00,VWS V14.01,2013-11-11 20:56:00,
2013-11-11 16:00:00,47.6,31.3,30.02,West,277,4.0,8.0,53,0.00,,,0.00,VWS V15.00,2013-11-11 21:00:00,
2013-11-11 16:01:00,48.0,32.2,30.03,WSW,249,3.0,10.0,54,0.00,,,0.00,VWS V14.01,2013-11-11 21:01:00,
2013-11-11 16:06:00,47.9,32.1,30.03,West,261,1.0,6.0,54,0.00,,,0.00,VWS V14.01,2013-11-11 21:06:00,
2013-11-11 16:10:00,47.6,31.3,30.02,NW,320,1.0,9.0,53,0.00,,,0.00,VWS V15.00,2013-11-11 21:10:00,
2013-11-11 16:11:00,47.9,32.1,30.03,West,263,0.0,6.0,54,0.00,,,0.00,VWS V14.01,2013-11-11 21:11:00,
2013-11-11 16:16:00,47.9,32.5,30.03,West,275,1.0,4.0,55,0.00,,,0.00,VWS V14.01,2013-11-11 21:16:00,
2013-11-11 16:20:00,47.5,31.7,30.02,West,266,4.0,8.0,54,0.00,,,0.00,VWS V15.00,2013-11-11 21:20:00,
2013-11-11 16:21:00,47.8,32.4,30.03,West,275,0.0,4.0,55,0.00,,,0.00,VWS V14.01,2013-11-11 21:21:00,
2013-11-11 16:26:00,47.8,32.4,30.03,West,278,1.0,3.0,55,0.00,,,0.00,VWS V14.01,2013-11-11 21:26:00,
2013-11-11 16:30:00,47.5,32.2,30.01,WSW,240,0.0,9.0,55,0.00,,,0.00,VWS V15.00,2013-11-11 21:30:00,
2013-11-11 16:31:00,47.8,32.9,30.03,West,275,3.0,6.0,56,0.00,,,0.00,VWS V14.01,2013-11-11 21:31:00,
2013-11-11 16:36:00,47.7,32.3,30.02,West,269,4.0,5.0,55,0.00,,,0.00,VWS V14.01,2013-11-11 21:36:00,
2013-11-11 16:40:00,47.4,32.5,30.01,West,280,0.0,6.0,56,0.00,,,0.00,VWS V15.00,2013-11-11 21:40:00,
2013-11-11 16:41:00,47.7,32.3,30.02,SW,223,3.0,7.0,55,0.00,,,0.00,VWS V14.01,2013-11-11 21:41:00,
2013-11-11 16:46:00,47.7,31.9,30.02,WSW,243,6.0,12.0,54,0.00,,,0.00,VWS V14.01,2013-11-11 21:46:00,
2013-11-11 16:50:00,47.4,32.5,30.02,West,281,1.0,11.0,56,0.00,,,0.00,VWS V15.00,2013-11-11 21:50:00,
2013-11-11 16:51:00,47.7,31.4,30.02,West,275,6.0,12.0,53,0.00,,,0.00,VWS V14.01,2013-11-11 21:51:00,
2013-11-11 16:56:00,47.6,31.3,30.02,WSW,255,7.0,8.0,53,0.00,,,0.00,VWS V14.01,2013-11-11 21:56:00,
2013-11-11 17:00:00,47.4,32.5,30.02,West,280,0.0,8.0,56,0.00,,,0.00,VWS V15.00,2013-11-11 22:00:00,
2013-11-11 17:01:00,47.6,31.3,30.02,West,263,2.0,8.0,53,0.00,,,0.00,VWS V14.01,2013-11-11 22:01:00,
2013-11-11 17:06:00,47.6,31.3,30.02,West,259,1.0,9.0,53,0.00,,,0.00,VWS V14.01,2013-11-11 22:06:00,
2013-11-11 17:10:00,47.4,33.0,30.02,West,261,2.0,9.0,57,0.00,,,0.00,VWS V15.00,2013-11-11 22:10:00,
2013-11-11 17:11:00,47.6,31.3,30.02,West,260,4.0,9.0,53,0.00,,,0.00,VWS V14.01,2013-11-11 22:11:00,
2013-11-11 17:16:00,47.6,31.8,30.02,West,268,3.0,5.0,54,0.00,,,0.00,VWS V14.01,2013-11-11 22:16:00,
2013-11-11 17:20:00,47.4,33.8,30.02,WNW,297,2.0,6.0,59,0.00,,,0.00,VWS V15.00,2013-11-11 22:20:00,
2013-11-11 17:21:00,47.5,31.7,30.02,WSW,248,4.0,6.0,54,0.00,,,0.00,VWS V14.01,2013-11-11 22:21:00,
2013-11-11 17:26:00,47.5,31.7,30.02,WSW,243,1.0,7.0,54,0.00,,,0.00,VWS V14.01,2013-11-11 22:26:00,
2013-11-11 17:30:00,47.4,33.8,30.02,West,261,4.0,6.0,59,0.00,,,0.00,VWS V15.00,2013-11-11 22:30:00,
2013-11-11 17:31:00,47.5,31.7,30.01,SW,235,0.0,9.0,54,0.00,,,0.00,VWS V14.01,2013-11-11 22:31:00,
2013-11-11 17:36:00,47.4,32.1,30.01,West,280,0.0,4.0,55,0.00,,,0.00,VWS V14.01,2013-11-11 22:36:00,
2013-11-11 17:40:00,47.3,33.7,30.02,West,261,0.0,4.0,59,0.00,,,0.00,VWS V15.00,2013-11-11 22:40:00,
2013-11-11 17:41:00,47.4,32.1,30.01,West,281,0.0,6.0,55,0.00,,,0.00,VWS V14.01,2013-11-11 22:41:00,
2013-11-11 17:46:00,47.4,32.1,30.01,WNW,296,5.0,11.0,55,0.00,,,0.00,VWS V14.01,2013-11-11 22:46:00,
2013-11-11 17:50:00,47.4,34.2,30.01,SSW,211,3.0,8.0,60,0.00,,,0.00,VWS V15.00,2013-11-11 22:50:00,
2013-11-11 17:51:00,47.4,32.5,30.02,West,259,4.0,11.0,56,0.00,,,0.00,VWS V14.01,2013-11-11 22:51:00,
2013-11-11 17:56:00,47.4,32.5,30.02,West,267,2.0,8.0,56,0.00,,,0.00,VWS V14.01,2013-11-11 22:56:00,
2013-11-11 18:00:00,47.4,34.2,30.00,West,276,3.0,6.0,60,0.00,,,0.00,VWS V15.00,2013-11-11 23:00:00,
2013-11-11 18:01:00,47.4,32.5,30.02,SW,236,3.0,8.0,56,0.00,,,0.00,VWS V14.01,2013-11-11 23:01:00,
2013-11-11 18:06:00,47.4,33.0,30.02,WNW,294,6.0,8.0,57,0.00,,,0.00,VWS V14.01,2013-11-11 23:06:00,
2013-11-11 18:10:00,47.3,34.1,30.00,SW,233,6.0,6.0,60,0.00,,,0.00,VWS V15.00,2013-11-11 23:10:00,
2013-11-11 18:11:00,47.4,33.0,30.02,West,271,8.0,9.0,57,0.00,,,0.00,VWS V14.01,2013-11-11 23:11:00,
2013-11-11 18:16:00,47.4,33.4,30.02,West,261,0.0,2.0,58,0.00,,,0.00,VWS V14.01,2013-11-11 23:16:00,
2013-11-11 18:20:00,47.3,34.1,29.99,WSW,237,0.0,6.0,60,0.00,,,0.00,VWS V15.00,2013-11-11 23:20:00,
2013-11-11 18:21:00,47.4,33.4,30.02,WNW,297,3.0,6.0,58,0.00,,,0.00,VWS V14.01,2013-11-11 23:21:00,
2013-11-11 18:26:00,47.4,33.4,30.02,West,265,2.0,6.0,58,0.00,,,0.00,VWS V14.01,2013-11-11 23:26:00,
2013-11-11 18:30:00,47.3,34.1,29.99,WSW,252,3.0,9.0,60,0.00,,,0.00,VWS V15.00,2013-11-11 23:30:00,
2013-11-11 18:31:00,47.4,33.8,30.02,West,261,0.0,6.0,59,0.00,,,0.00,VWS V14.01,2013-11-11 23:31:00,
2013-11-11 18:36:00,47.4,33.8,30.02,West,263,0.0,4.0,59,0.00,,,0.00,VWS V14.01,2013-11-11 23:36:00,
2013-11-11 18:40:00,47.3,34.1,29.99,NW,315,8.0,8.0,60,0.00,,,0.00,VWS V15.00,2013-11-11 23:40:00,
2013-11-11 18:41:00,47.3,33.7,30.02,West,261,0.0,4.0,59,0.00,,,0.00,VWS V14.01,2013-11-11 23:41:00,
2013-11-11 18:46:00,47.3,33.7,30.02,WNW,292,7.0,8.0,59,0.00,,,0.00,VWS V14.01,2013-11-11 23:46:00,
2013-11-11 18:50:00,47.3,33.7,29.99,West,268,6.0,13.0,59,0.00,,,0.00,VWS V15.00,2013-11-11 23:50:00,
2013-11-11 18:51:00,47.4,33.8,30.01,WNW,289,4.0,8.0,59,0.00,,,0.00,VWS V14.01,2013-11-11 23:51:00,
2013-11-11 18:56:00,47.4,34.2,30.01,West,263,0.0,6.0,60,0.00,,,0.00,VWS V14.01,2013-11-11 23:56:00,
2013-11-11 19:00:00,47.3,33.7,29.99,West,262,0.0,10.0,59,0.00,,,0.00,VWS V15.00,2013-11-12 00:00:00,
2013-11-11 19:01:00,47.4,34.2,30.01,West,276,0.0,6.0,60,0.00,,,0.00,VWS V14.01,2013-11-12 00:01:00,
2013-11-11 19:06:00,47.4,34.2,30.00,West,273,0.0,4.0,60,0.00,,,0.00,VWS V14.01,2013-11-12 00:06:00,
2013-11-11 19:10:00,47.2,33.6,29.99,West,273,3.0,13.0,59,0.00,,,0.00,VWS V15.00,2013-11-12 00:10:00,
2013-11-11 19:11:00,47.3,34.1,30.00,WSW,257,3.0,4.0,60,0.00,,,0.00,VWS V14.01,2013-11-12 00:11:00,
2013-11-11 19:16:00,47.3,34.1,30.00,SW,229,2.0,6.0,60,0.00,,,0.00,VWS V14.01,2013-11-12 00:16:00,
2013-11-11 19:20:00,47.2,33.6,29.98,West,276,3.0,7.0,59,0.00,,,0.00,VWS V15.00,2013-11-12 00:20:00,
2013-11-11 19:21:00,47.3,34.1,29.99,WSW,238,0.0,6.0,60,0.00,,,0.00,VWS V14.01,2013-11-12 00:21:00,
2013-11-11 19:26:00,47.3,34.1,29.99,West,271,0.0,5.0,60,0.00,,,0.00,VWS V14.01,2013-11-12 00:26:00,
2013-11-11 19:30:00,47.2,34.0,29.99,West,259,0.0,9.0,60,0.00,,,0.00,VWS V15.00,2013-11-12 00:30:00,
2013-11-11 19:31:00,47.3,34.1,29.99,West,269,3.0,9.0,60,0.00,,,0.00,VWS V14.01,2013-11-12 00:31:00,
2013-11-11 19:36:00,47.3,34.1,29.99,West,266,4.0,8.0,60,0.00,,,0.00,VWS V14.01,2013-11-12 00:36:00,
2013-11-11 19:40:00,47.0,33.8,29.99,WSW,249,4.0,7.0,60,0.00,,,0.00,VWS V15.00,2013-11-12 00:40:00,
2013-11-11 19:41:00,47.3,34.1,29.99,SW,217,3.0,8.0,60,0.00,,,0.00,VWS V14.01,2013-11-12 00:41:00,
2013-11-11 19:45:00,47.3,33.7,29.99,West,276,3.0,13.0,59,0.00,,,0.00,VWS V14.01,2013-11-12 00:45:00,
2013-11-11 19:50:00,47.3,33.7,29.99,West,275,8.0,13.0,59,0.00,,,0.00,VWS V14.01,2013-11-12 00:50:00,
2013-11-11 19:55:00,47.3,33.7,29.99,WSW,243,2.0,10.0,59,0.00,,,0.00,VWS V14.01,2013-11-12 00:55:00,
2013-11-11 20:00:00,47.3,33.7,29.99,West,263,1.0,10.0,59,0.00,,,0.00,VWS V14.01,2013-11-12 01:00:00,
2013-11-11 20:05:00,47.2,33.6,29.99,WSW,238,7.0,10.0,59,0.00,,,0.00,VWS V14.01,2013-11-12 01:05:00,
2013-11-11 20:10:00,47.2,33.6,29.99,WSW,242,2.0,13.0,59,0.00,,,0.00,VWS V14.01,2013-11-12 01:10:00,
2013-11-11 20:15:00,47.2,33.6,29.99,West,276,0.0,6.0,59,0.00,,,0.00,VWS V14.01,2013-11-12 01:15:00,
2013-11-11 20:20:00,47.2,33.6,29.98,WNW,285,5.0,7.0,59,0.00,,,0.00,VWS V14.01,2013-11-12 01:20:00,
2013-11-11 20:25:00,47.2,33.6,29.98,West,261,1.0,9.0,59,0.00,,,0.00,VWS V14.01,2013-11-12 01:25:00,
2013-11-11 20:30:00,47.1,33.9,29.98,WNW,284,5.0,9.0,60,0.00,,,0.00,VWS V14.01,2013-11-12 01:30:00,
2013-11-11 20:35:00,47.1,33.9,29.99,West,265,2.0,7.0,60,0.00,,,0.00,VWS V14.01,2013-11-12 01:35:00,
2013-11-11 20:40:00,47.0,33.8,29.99,South,169,0.0,7.0,60,0.00,,,0.00,VWS V14.01,2013-11-12 01:40:00,
2013-11-11 20:45:00,47.0,33.8,29.99,WSW,254,2.0,8.0,60,0.00,,,0.00,VWS V14.01,2013-11-12 01:45:00,
2013-11-11 20:50:00,47.0,33.8,29.99,West,271,0.0,8.0,60,0.00,,,0.00,VWS V14.01,2013-11-12 01:50:00,
2013-11-11 20:55:00,46.9,33.8,29.99,WSW,240,5.0,8.0,60,0.00,,,0.00,VWS V14.01,2013-11-12 01:55:00,
2013-11-11 21:00:00,46.9,33.8,29.99,West,273,2.0,10.0,60,0.00,,,0.00,VWS V14.01,2013-11-12 02:00:00,
2013-11-11 21:05:00,46.9,33.8,29.98,West,263,8.0,9.0,60,0.00,,,0.00,VWS V14.01,2013-11-12 02:05:00,
2013-11-11 21:10:00,46.9,33.8,29.98,WSW,250,5.0,9.0,60,0.00,,,0.00,VWS V14.01,2013-11-12 02:10:00,
2013-11-11 21:15:00,46.9,33.8,29.98,WNW,287,8.0,8.0,60,0.00,,,0.00,VWS V14.01,2013-11-12 02:15:00,
2013-11-11 21:20:00,46.9,33.8,29.98,West,264,2.0,8.0,60,0.00,,,0.00,VWS V14.01,2013-11-12 02:20:00,
2013-11-11 21:25:00,46.9,33.8,29.98,West,266,4.0,9.0,60,0.00,,,0.00,VWS V14.01,2013-11-12 02:25:00,
2013-11-11 21:30:00,46.9,33.8,29.98,West,266,6.0,9.0,60,0.00,,,0.00,VWS V14.01,2013-11-12 02:30:00,
2013-11-11 21:35:00,46.9,33.8,29.98,West,275,10.0,10.0,60,0.00,,,0.00,VWS V14.01,2013-11-12 02:35:00,
2013-11-11 21:40:00,46.9,33.8,29.98,WNW,285,3.0,13.0,60,0.00,,,0.00,VWS V14.01,2013-11-12 02:40:00,
2013-11-11 21:45:00,46.9,33.8,29.98,WSW,244,1.0,6.0,60,0.00,,,0.00,VWS V14.01,2013-11-12 02:45:00,
2013-11-11 21:50:00,46.9,33.8,29.97,WSW,257,2.0,6.0,60,0.00,,,0.00,VWS V14.01,2013-11-12 02:50:00,
2013-11-11 21:55:00,46.8,34.1,29.97,West,273,6.0,9.0,61,0.00,,,0.00,VWS V14.01,2013-11-12 02:55:00,
2013-11-11 22:00:00,46.9,34.2,29.97,WNW,294,2.0,9.0,61,0.00,,,0.00,VWS V14.01,2013-11-12 03:00:00,
2013-11-11 22:05:00,46.8,34.1,29.97,West,274,2.0,5.0,61,0.00,,,0.00,VWS V14.01,2013-11-12 03:05:00,
2013-11-11 22:10:00,46.8,34.1,29.97,WSW,258,2.0,9.0,61,0.00,,,0.00,VWS V14.01,2013-11-12 03:10:00,
2013-11-11 22:15:00,46.8,34.1,29.97,West,279,9.0,12.0,61,0.00,,,0.00,VWS V14.01,2013-11-12 03:15:00,
2013-11-11 22:20:00,46.9,34.2,29.97,West,279,2.0,12.0,61,0.00,,,0.00,VWS V14.01,2013-11-12 03:20:00,
2013-11-11 22:25:00,46.8,34.1,29.97,WSW,251,3.0,10.0,61,0.00,,,0.00,VWS V14.01,2013-11-12 03:25:00,
2013-11-11 22:30:00,46.8,34.5,29.97,West,280,1.0,11.0,62,0.00,,,0.00,VWS V14.01,2013-11-12 03:30:00,
2013-11-11 22:35:00,46.8,34.5,29.96,WNW,284,4.0,8.0,62,0.00,,,0.00,VWS V14.01,2013-11-12 03:35:00,
2013-11-11 22:40:00,46.8,34.5,29.96,West,265,0.0,8.0,62,0.00,,,0.00,VWS V14.01,2013-11-12 03:40:00,
2013-11-11 22:45:00,46.7,34.4,29.96,West,272,6.0,11.0,62,0.00,,,0.00,VWS V14.01,2013-11-12 03:45:00,
2013-11-11 22:50:00,46.7,34.4,29.95,SSW,212,5.0,11.0,62,0.00,,,0.00,VWS V14.01,2013-11-12 03:50:00,
2013-11-11 22:55:00,46.7,34.4,29.95,West,267,3.0,9.0,62,0.00,,,0.00,VWS V14.01,2013-11-12 03:55:00,
2013-11-11 23:00:00,46.7,35.2,29.95,WSW,251,0.0,8.0,64,0.00,,,0.00,VWS V15.00,2013-11-12 04:00:00,
2013-11-11 23:01:00,46.7,34.8,29.95,WSW,238,2.0,10.0,63,0.00,,,0.00,VWS V14.01,2013-11-12 04:01:00,
2013-11-11 23:06:00,46.7,34.4,29.95,WNW,298,5.0,11.0,62,0.00,,,0.00,VWS V14.01,2013-11-12 04:06:00,
2013-11-11 23:10:00,46.7,35.2,29.95,West,278,2.0,5.0,64,0.00,,,0.00,VWS V15.00,2013-11-12 04:10:00,
2013-11-11 23:11:00,46.7,34.8,29.95,WSW,242,0.0,11.0,63,0.00,,,0.00,VWS V14.01,2013-11-12 04:11:00,
2013-11-11 23:16:00,46.7,34.8,29.95,WNW,284,5.0,7.0,63,0.00,,,0.00,VWS V14.01,2013-11-12 04:16:00,
2013-11-11 23:20:00,46.6,35.1,29.94,West,260,4.0,7.0,64,0.00,,,0.00,VWS V15.00,2013-11-12 04:20:00,
2013-11-11 23:21:00,46.7,34.8,29.95,WSW,243,2.0,7.0,63,0.00,,,0.00,VWS V14.01,2013-11-12 04:21:00,
2013-11-11 23:26:00,46.7,34.8,29.95,NW,307,0.0,5.0,63,0.00,,,0.00,VWS V14.01,2013-11-12 04:26:00,
2013-11-11 23:30:00,46.7,34.8,29.94,West,271,2.0,6.0,63,0.00,,,0.00,VWS V15.00,2013-11-12 04:30:00,
2013-11-11 23:31:00,46.7,34.8,29.95,West,263,2.0,7.0,63,0.00,,,0.00,VWS V14.01,2013-11-12 04:31:00,
2013-11-11 23:36:00,46.7,35.2,29.95,WSW,252,7.0,7.0,64,0.00,,,0.00,VWS V14.01,2013-11-12 04:36:00,
2013-11-11 23:40:00,46.7,34.8,29.94,West,275,0.0,8.0,63,0.00,,,0.00,VWS V15.00,2013-11-12 04:40:00,
2013-11-11 23:41:00,46.7,34.8,29.95,West,259,1.0,12.0,63,0.00,,,0.00,VWS V14.01,2013-11-12 04:41:00,
2013-11-11 23:46:00,46.7,34.8,29.95,West,263,1.0,10.0,63,0.00,,,0.00,VWS V14.01,2013-11-12 04:46:00,
2013-11-11 23:50:00,46.8,34.9,29.94,West,259,3.0,6.0,63,0.00,,,0.00,VWS V15.00,2013-11-12 04:50:00,
2013-11-11 23:51:00,46.7,35.2,29.95,West,274,4.0,10.0,64,0.00,,,0.00,VWS V14.01,2013-11-12 04:51:00,
2013-11-11 23:56:00,46.7,35.2,29.95,WSW,243,3.0,7.0,64,0.00,,,0.00,VWS V14.01,2013-11-12 04:56:00,